Time;durP1;ratioP1;P1;durP2;ratioP2;P2;SDS_P1;SDS_P2;PMS_P1;PMS_P2;Temp;Humidity;BMP_temperature;BMP_pressure;BME280_temperature;BME280_humidity;BME280_pressure;Samples;Min_cycle;Max_cycle;Signal;HPM_P1;HPM_P2
2021/12/11 00:01:17;;;;;;;48.57;26.87;;;;;;;3.55;100.00;-23915.53;5052162;28;20177;-73
2021/12/11 00:03:51;;;;;;;44.83;25.30;;;;;;;3.99;100.00;-23927.81;5051781;28;20244;-73
2021/12/11 00:06:27;;;;;;;45.40;26.40;;;;;;;4.16;100.00;-23932.63;5051892;28;20194;-72
2021/12/11 00:08:56;;;;;;;40.67;25.33;;;;;;;4.24;100.00;-23934.91;5050292;28;20174;-73
2021/12/11 00:11:27;;;;;;;41.73;24.03;;;;;;;4.05;100.00;-23929.50;5052811;28;20256;-72
2021/12/11 00:13:59;;;;;;;43.50;25.50;;;;;;;3.94;100.00;-23926.53;5052516;28;20155;-74
2021/12/11 00:16:26;;;;;;;41.83;24.60;;;;;;;4.49;100.00;-23941.75;5050631;28;20193;-71
2021/12/11 00:18:56;;;;;;;44.67;23.93;;;;;;;4.06;100.00;-23929.66;5052118;28;20169;-72
2021/12/11 00:21:24;;;;;;;39.57;24.23;;;;;;;3.80;100.00;-23922.38;5052530;28;20175;-72
2021/12/11 00:24:09;;;;;;;44.33;25.53;;;;;;;4.36;100.00;-23938.34;5050803;28;20179;-72
2021/12/11 00:26:36;;;;;;;44.03;25.23;;;;;;;4.36;100.00;-23938.19;5052075;28;20216;-73
2021/12/11 00:29:05;;;;;;;45.17;27.10;;;;;;;4.44;100.00;-23940.63;5052317;28;20171;-72
2021/12/11 00:31:32;;;;;;;45.80;26.43;;;;;;;3.90;100.00;-23925.22;5052206;28;20186;-71
2021/12/11 00:33:58;;;;;;;45.97;25.23;;;;;;;4.22;100.00;-23934.34;5052082;28;20175;-72
2021/12/11 00:36:32;;;;;;;43.50;26.80;;;;;;;4.25;100.00;-23935.06;5050900;28;20185;-71
2021/12/11 00:39:08;;;;;;;43.53;26.90;;;;;;;3.89;100.00;-23924.94;5051873;28;20163;-72
2021/12/11 00:41:35;;;;;;;49.43;27.10;;;;;;;4.06;100.00;-23929.66;5052293;28;20210;-72
2021/12/11 00:44:01;;;;;;;44.27;27.17;;;;;;;4.12;100.00;-23931.50;5052327;28;20243;-71
2021/12/11 00:46:28;;;;;;;47.33;27.17;;;;;;;3.63;100.00;-23917.69;5051470;28;20223;-73
2021/12/11 00:49:05;;;;;;;48.53;27.40;;;;;;;3.96;100.00;-23926.94;5052124;28;20263;-72
2021/12/11 00:51:31;;;;;;;47.80;28.13;;;;;;;4.18;100.00;-23933.06;5052125;28;20189;-72
2021/12/11 00:53:58;;;;;;;44.93;26.47;;;;;;;3.67;100.00;-23918.81;5051446;28;20403;-72
2021/12/11 00:56:38;;;;;;;37.47;23.07;;;;;;;4.28;100.00;-23936.06;5051985;28;20229;-72
2021/12/11 00:59:08;;;;;;;49.03;28.00;;;;;;;4.60;100.00;-23945.03;5047102;28;20178;-72
2021/12/11 01:01:39;;;;;;;49.93;26.87;;;;;;;4.64;100.00;-23946.03;5052053;28;20174;-72
2021/12/11 01:04:41;;;;;;;38.60;23.50;;;;;;;4.63;100.00;-23945.88;5050401;28;20186;-73
2021/12/11 01:07:18;;;;;;;38.43;22.43;;;;;;;4.44;100.00;-23940.63;5054343;28;20501;-72
2021/12/11 01:09:48;;;;;;;38.77;23.47;;;;;;;4.02;100.00;-23928.50;5051647;28;20186;-71
2021/12/11 01:12:44;;;;;;;45.57;25.27;;;;;;;4.49;100.00;-23941.91;5052105;28;20277;-72
2021/12/11 01:15:32;;;;;;;39.50;22.83;;;;;;;4.47;100.00;-23941.19;5047817;28;20233;-73
2021/12/11 01:18:22;;;;;;;38.23;22.30;;;;;;;4.54;100.00;-23943.19;5053499;28;20586;-71
2021/12/11 01:21:04;;;;;;;38.57;21.80;;;;;;;4.68;100.00;-23947.16;5055296;28;20167;-71
2021/12/11 01:26:05;;;;;;;33.97;18.83;;;;;;;4.56;100.00;-23943.88;5055210;28;20198;-71
2021/12/11 01:28:32;;;;;;;31.87;19.37;;;;;;;4.75;100.00;-23949.16;5055642;28;20265;-71
2021/12/11 01:30:58;;;;;;;32.83;19.40;;;;;;;4.63;100.00;-23945.75;5055758;28;20177;-72
2021/12/11 01:33:24;;;;;;;35.87;21.10;;;;;;;4.78;100.00;-23950.16;5055203;28;20182;-72
2021/12/11 01:35:50;;;;;;;36.83;21.43;;;;;;;4.89;100.00;-23953.13;5054976;28;20209;-72
2021/12/11 01:38:25;;;;;;;34.07;21.97;;;;;;;4.56;100.00;-23943.75;5055815;28;20170;-72
2021/12/11 01:40:55;;;;;;;41.83;21.70;;;;;;;4.52;100.00;-23942.59;5055134;28;20194;-73
2021/12/11 01:43:24;;;;;;;37.33;20.80;;;;;;;4.24;100.00;-23934.91;5055450;28;20222;-72
2021/12/11 01:45:51;;;;;;;38.30;22.80;;;;;;;4.69;100.00;-23947.44;5054803;28;20230;-73
2021/12/11 01:48:27;;;;;;;36.30;21.43;;;;;;;4.70;100.00;-23947.72;5054715;28;20179;-72
2021/12/11 01:50:59;;;;;;;36.80;21.93;;;;;;;4.38;100.00;-23938.91;5055338;28;20177;-73
2021/12/11 01:53:30;;;;;;;37.17;21.90;;;;;;;4.07;100.00;-23929.94;5053794;28;20596;-71
2021/12/11 01:56:00;;;;;;;36.93;21.03;;;;;;;4.12;100.00;-23931.34;5054957;28;20625;-71
2021/12/11 01:58:34;;;;;;;37.47;22.20;;;;;;;4.00;100.00;-23928.22;5054827;28;20529;-72
2021/12/11 02:01:09;;;;;;;35.03;21.07;;;;;;;4.31;100.00;-23936.91;5053292;28;20229;-72
2021/12/11 02:03:35;;;;;;;33.97;20.93;;;;;;;4.41;100.00;-23939.63;5054640;28;20182;-71
2021/12/11 02:06:01;;;;;;;34.20;20.87;;;;;;;4.13;100.00;-23931.78;5054375;28;20201;-71
2021/12/11 02:08:30;;;;;;;35.43;20.90;;;;;;;4.43;100.00;-23940.19;5054486;28;20240;-72
2021/12/11 02:11:03;;;;;;;34.63;20.40;;;;;;;4.02;100.00;-23928.66;5054211;28;20216;-72
2021/12/11 02:13:52;;;;;;;33.60;21.13;;;;;;;3.85;100.00;-23923.94;5054388;28;20159;-72
2021/12/11 02:16:24;;;;;;;32.80;20.37;;;;;;;4.25;100.00;-23935.22;5053119;28;20265;-71
2021/12/11 02:18:57;;;;;;;36.87;22.10;;;;;;;4.07;100.00;-23929.94;5054662;28;20202;-71
2021/12/11 02:21:28;;;;;;;37.77;21.93;;;;;;;4.11;100.00;-23931.06;5053956;28;20267;-71
2021/12/11 02:24:04;;;;;;;33.30;20.10;;;;;;;3.66;100.00;-23918.53;5052675;28;20250;-72
2021/12/11 02:26:34;;;;;;;34.20;20.30;;;;;;;3.49;100.00;-23913.69;5054145;28;20197;-73
2021/12/11 02:29:18;;;;;;;32.90;19.60;;;;;;;4.08;100.00;-23930.38;5054172;28;20206;-71
2021/12/11 02:31:52;;;;;;;32.90;18.83;;;;;;;4.10;100.00;-23930.94;5052653;28;20198;-71
2021/12/11 02:34:23;;;;;;;31.93;19.50;;;;;;;3.94;100.00;-23926.53;5052774;28;20183;-71
2021/12/11 02:37:14;;;;;;;31.43;18.77;;;;;;;3.78;100.00;-23921.97;5054191;28;20174;-71
2021/12/11 02:39:47;;;;;;;36.23;21.40;;;;;;;3.71;100.00;-23919.81;5053588;28;20182;-71
2021/12/11 02:42:23;;;;;;;40.67;21.67;;;;;;;3.60;100.00;-23916.69;5040968;28;20231;-72
2021/12/11 02:45:01;;;;;;;36.67;20.00;;;;;;;3.70;100.00;-23919.69;5049588;28;20198;-71
2021/12/11 02:47:32;;;;;;;32.40;18.30;;;;;;;3.61;100.00;-23916.97;5053789;28;20273;-71
2021/12/11 02:50:16;;;;;;;36.03;19.57;;;;;;;3.79;100.00;-23922.09;5053135;28;20612;-71
2021/12/11 02:52:59;;;;;;;43.73;25.27;;;;;;;3.54;100.00;-23915.25;5053553;28;20190;-72
2021/12/11 02:55:50;;;;;;;41.03;24.13;;;;;;;3.11;100.00;-23903.00;5054170;28;20531;-71
2021/12/11 02:58:20;;;;;;;36.60;21.87;;;;;;;3.41;100.00;-23911.56;5054064;28;20232;-73
2021/12/11 03:01:04;;;;;;;38.93;21.33;;;;;;;3.09;100.00;-23902.44;5053394;28;20193;-73
2021/12/11 03:03:35;;;;;;;37.60;22.03;;;;;;;3.53;100.00;-23914.84;5052264;28;20186;-73
2021/12/11 03:06:10;;;;;;;44.57;25.40;;;;;;;3.08;100.00;-23902.16;5052178;28;20202;-73
2021/12/11 03:08:36;;;;;;;48.43;29.53;;;;;;;3.15;100.00;-23904.00;5052323;28;20186;-71
2021/12/11 03:11:07;;;;;;;43.63;24.73;;;;;;;3.11;100.00;-23903.00;5052795;28;20166;-71
2021/12/11 03:13:34;;;;;;;43.80;24.63;;;;;;;3.20;100.00;-23905.56;5052994;28;20197;-73
2021/12/11 03:16:01;;;;;;;41.43;23.60;;;;;;;3.26;100.00;-23907.28;5052080;28;20611;-72
2021/12/11 03:18:28;;;;;;;41.17;22.13;;;;;;;3.25;100.00;-23907.00;5052639;28;20191;-73
2021/12/11 03:20:53;;;;;;;32.13;19.07;;;;;;;2.87;100.00;-23896.28;5051415;28;20247;-73
2021/12/11 03:23:19;;;;;;;34.47;20.57;;;;;;;3.06;100.00;-23901.56;5052698;28;20182;-71
2021/12/11 03:25:45;;;;;;;34.20;22.13;;;;;;;3.43;100.00;-23912.13;5052685;28;20194;-72
2021/12/11 03:28:12;;;;;;;37.87;23.17;;;;;;;3.08;100.00;-23902.28;5052309;28;20619;-72
2021/12/11 03:30:43;;;;;;;41.93;23.67;;;;;;;3.29;100.00;-23908.13;5052580;28;20274;-73
2021/12/11 03:33:13;;;;;;;47.07;30.60;;;;;;;3.14;100.00;-23903.84;5052698;28;20625;-72
2021/12/11 03:35:40;;;;;;;45.27;28.13;;;;;;;3.02;100.00;-23900.56;5052514;28;20239;-73
2021/12/11 03:38:06;;;;;;;37.63;23.63;;;;;;;3.15;100.00;-23904.13;5052304;28;20167;-71
2021/12/11 03:40:32;;;;;;;39.57;23.67;;;;;;;3.34;100.00;-23909.56;5051475;28;20553;-72
2021/12/11 03:43:00;;;;;;;42.13;26.00;;;;;;;3.17;100.00;-23904.72;5052635;28;20214;-72
2021/12/11 03:45:31;;;;;;;42.67;24.83;;;;;;;2.82;100.00;-23894.72;5052784;28;20206;-73
2021/12/11 03:48:09;;;;;;;36.03;21.77;;;;;;;2.43;100.00;-23883.88;5053294;28;20262;-72
2021/12/11 03:50:36;;;;;;;34.37;23.67;;;;;;;3.07;100.00;-23901.84;5053050;28;20259;-72
2021/12/11 03:53:04;;;;;;;35.70;20.77;;;;;;;3.01;100.00;-23900.28;5051227;28;20665;-71
2021/12/11 03:55:34;;;;;;;30.40;18.53;;;;;;;2.52;100.00;-23886.31;5052547;28;20185;-72
2021/12/11 03:58:01;;;;;;;29.27;18.10;;;;;;;2.47;100.00;-23885.03;5052327;28;20179;-72
2021/12/11 04:01:01;;;;;;;29.53;18.70;;;;;;;2.74;100.00;-23892.44;5052270;28;20179;-72
2021/12/11 04:03:31;;;;;;;28.33;18.17;;;;;;;2.90;100.00;-23897.00;5042300;28;20395;-72
2021/12/11 04:06:00;;;;;;;32.57;21.23;;;;;;;2.32;100.00;-23880.75;5051391;28;20218;-72
2021/12/11 04:08:34;;;;;;;24.70;16.47;;;;;;;2.70;100.00;-23891.31;5051312;28;20187;-73
2021/12/11 04:10:59;;;;;;;27.80;16.20;;;;;;;2.66;100.00;-23890.31;5052770;28;20209;-73
2021/12/11 04:13:25;;;;;;;25.87;16.97;;;;;;;2.74;100.00;-23892.44;5052087;28;20210;-71
2021/12/11 04:15:53;;;;;;;27.00;17.37;;;;;;;2.33;100.00;-23881.03;5052312;28;20181;-71
2021/12/11 04:18:19;;;;;;;31.10;18.90;;;;;;;2.67;100.00;-23890.72;5052690;28;20200;-72
2021/12/11 04:20:47;;;;;;;31.40;18.70;;;;;;;2.70;100.00;-23891.44;5052089;28;20241;-71
2021/12/11 04:23:13;;;;;;;30.33;17.30;;;;;;;2.17;100.00;-23876.47;5052193;28;20175;-71
2021/12/11 04:25:42;;;;;;;31.53;19.50;;;;;;;2.72;100.00;-23891.88;5052120;28;20237;-72
2021/12/11 04:28:08;;;;;;;27.47;16.80;;;;;;;2.50;100.00;-23885.72;5051356;28;20191;-72
2021/12/11 04:30:34;;;;;;;29.80;19.67;;;;;;;2.35;100.00;-23881.59;5052009;28;20187;-71
2021/12/11 04:33:01;;;;;;;27.93;17.57;;;;;;;2.70;100.00;-23891.31;5052379;28;20182;-71
2021/12/11 04:35:29;;;;;;;30.83;19.20;;;;;;;2.31;100.00;-23880.47;5052024;28;20545;-72
2021/12/11 04:37:57;;;;;;;32.53;19.50;;;;;;;2.16;100.00;-23876.31;5051852;28;20182;-73
2021/12/11 04:40:28;;;;;;;33.53;19.90;;;;;;;2.26;100.00;-23878.88;5052165;28;20181;-72
2021/12/11 04:45:34;;;;;;;37.90;22.17;;;;;;;2.73;100.00;-23892.16;5051998;28;20712;-73
2021/12/11 04:48:37;;;;;;;35.27;21.43;;;;;;;2.73;100.00;-23892.31;5052080;28;20170;-72
2021/12/11 04:51:02;;;;;;;38.73;21.83;;;;;;;2.52;100.00;-23886.44;5051742;28;20186;-73
2021/12/11 04:56:37;;;;;;;39.23;22.10;;;;;;;1.44;100.00;-23855.75;5056128;28;20215;-72
2021/12/11 04:59:34;;;;;;;36.47;21.07;;;;;;;2.86;100.00;-23895.88;5055757;28;20281;-73
2021/12/11 05:12:14;;;;;;;45.03;26.03;;;;;;;2.92;100.00;-23897.72;5055616;28;20554;-73
2021/12/11 05:14:42;;;;;;;42.67;24.73;;;;;;;2.89;100.00;-23896.72;5055622;28;20215;-73
2021/12/11 05:17:09;;;;;;;39.30;24.13;;;;;;;3.01;100.00;-23900.28;5056408;28;20174;-72
2021/12/11 05:19:35;;;;;;;39.27;22.37;;;;;;;2.89;100.00;-23896.72;5055775;28;20182;-72
2021/12/11 05:22:03;;;;;;;41.20;22.70;;;;;;;2.76;100.00;-23893.00;5056348;28;20186;-73
2021/12/11 05:24:28;;;;;;;52.27;26.20;;;;;;;2.64;100.00;-23889.72;5058036;28;20629;-73
2021/12/11 05:26:54;;;;;;;37.90;23.07;;;;;;;2.84;100.00;-23895.44;5060349;28;20183;-72
2021/12/11 05:29:19;;;;;;;35.37;21.93;;;;;;;2.60;100.00;-23888.59;5059991;28;20531;-72
2021/12/11 05:31:45;;;;;;;34.47;21.90;;;;;;;2.61;100.00;-23889.03;5057433;28;20220;-73
2021/12/11 05:34:11;;;;;;;37.10;22.53;;;;;;;2.65;100.00;-23890.16;5053952;28;20537;-73
2021/12/11 05:36:37;;;;;;;37.13;23.93;;;;;;;2.25;100.00;-23878.59;5055295;28;20174;-73
2021/12/11 05:39:11;;;;;;;46.13;22.80;;;;;;;1.40;100.00;-23854.75;5054046;28;20269;-72
2021/12/11 05:41:36;;;;;;;39.63;23.93;;;;;;;2.50;100.00;-23885.88;5054667;28;20701;-72
2021/12/11 05:44:03;;;;;;;41.37;26.00;;;;;;;2.73;100.00;-23892.31;5054789;28;20182;-72
2021/12/11 05:46:28;;;;;;;38.83;22.60;;;;;;;2.32;100.00;-23880.59;5054856;28;20210;-73
2021/12/11 05:48:54;;;;;;;88.53;25.10;;;;;;;2.51;100.00;-23886.16;5054924;28;20252;-73
2021/12/11 05:51:22;;;;;;;39.97;23.33;;;;;;;2.72;100.00;-23891.88;5055164;28;20171;-72
2021/12/11 05:53:50;;;;;;;66.47;24.80;;;;;;;2.89;100.00;-23896.72;5055095;28;20187;-72
2021/12/11 05:56:18;;;;;;;41.37;23.87;;;;;;;2.86;100.00;-23895.88;5054792;28;20634;-77
2021/12/11 06:01:31;;;;;;;38.50;21.97;;;;;;;2.38;100.00;-23882.31;5055931;28;20159;-75
2021/12/11 06:04:01;;;;;;;36.00;20.77;;;;;;;3.03;100.00;-23900.88;5053434;28;20289;-77
2021/12/11 06:06:26;;;;;;;33.70;19.37;;;;;;;2.95;100.00;-23898.59;5053234;28;20209;-76
2021/12/11 06:08:52;;;;;;;30.83;19.67;;;;;;;2.77;100.00;-23893.31;5054735;28;20186;-77
2021/12/11 06:11:18;;;;;;;37.30;22.40;;;;;;;3.07;100.00;-23902.00;5053328;28;20261;-78
2021/12/11 06:13:44;;;;;;;33.67;20.20;;;;;;;3.20;100.00;-23905.56;5054732;28;20210;-75
2021/12/11 06:16:10;;;;;;;34.27;20.93;;;;;;;3.10;100.00;-23902.72;5054222;28;20226;-75
2021/12/11 06:18:36;;;;;;;32.90;20.10;;;;;;;3.52;100.00;-23914.69;5053377;28;20182;-75
2021/12/11 06:21:02;;;;;;;32.60;19.73;;;;;;;3.74;100.00;-23920.69;5054260;28;20194;-75
2021/12/11 06:23:28;;;;;;;34.03;19.47;;;;;;;3.79;100.00;-23922.09;5054366;28;20527;-75
2021/12/11 06:25:55;;;;;;;31.63;19.80;;;;;;;4.08;100.00;-23930.22;5052923;28;20256;-76
2021/12/11 06:28:22;;;;;;;33.53;20.67;;;;;;;4.24;100.00;-23934.91;5053873;28;20205;-77
2021/12/11 06:30:49;;;;;;;34.57;20.60;;;;;;;3.94;100.00;-23926.38;5052605;28;20568;-79
2021/12/11 06:33:14;;;;;;;30.67;19.70;;;;;;;4.57;100.00;-23944.19;5051659;28;20186;-77
2021/12/11 06:35:42;;;;;;;27.67;19.10;;;;;;;4.71;100.00;-23948.16;5052170;28;20193;-78
2021/12/11 06:38:12;;;;;;;23.73;15.57;;;;;;;4.74;100.00;-23949.00;5049889;28;20284;-76
2021/12/11 06:40:37;;;;;;;27.43;17.57;;;;;;;4.43;100.00;-23940.19;5051292;28;20191;-76
2021/12/11 06:43:04;;;;;;;25.93;16.47;;;;;;;4.91;100.00;-23953.72;5052299;28;20704;-77
2021/12/11 06:45:29;;;;;;;26.27;18.17;;;;;;;4.91;100.00;-23953.72;5052730;28;20551;-76
2021/12/11 06:47:56;;;;;;;28.23;19.00;;;;;;;4.91;100.00;-23953.72;5052561;28;20212;-76
2021/12/11 06:50:22;;;;;;;27.43;19.33;;;;;;;5.21;100.00;-23962.25;5050250;28;20240;-75
2021/12/11 06:52:49;;;;;;;24.77;15.67;;;;;;;5.28;100.00;-23964.22;5051815;28;20214;-78
2021/12/11 06:55:18;;;;;;;24.67;17.10;;;;;;;5.45;100.00;-23968.78;5052403;28;20182;-74
2021/12/11 06:57:44;;;;;;;25.20;17.27;;;;;;;5.40;100.00;-23967.38;5050091;28;20664;-77
2021/12/11 07:00:11;;;;;;;24.90;16.27;;;;;;;5.30;100.00;-23964.81;5050915;28;20174;-80
2021/12/11 07:02:36;;;;;;;28.93;18.03;;;;;;;5.64;100.00;-23974.19;5053044;28;20277;-76
2021/12/11 07:05:03;;;;;;;27.67;17.43;;;;;;;5.78;100.00;-23978.16;5051734;28;20285;-80
2021/12/11 07:07:33;;;;;;;22.67;16.67;;;;;;;6.17;100.00;-23989.25;5051774;28;20182;-79
2021/12/11 07:10:09;;;;;;;24.80;17.20;;;;;;;6.42;100.00;-23996.06;5052008;28;20205;-78
2021/12/11 07:12:34;;;;;;;23.77;15.17;;;;;;;6.32;100.00;-23993.22;5051709;28;20263;-77
2021/12/11 07:15:02;;;;;;;21.63;13.37;;;;;;;6.56;100.00;-24000.03;5050138;28;20175;-78
2021/12/11 07:17:28;;;;;;;21.57;13.37;;;;;;;6.93;100.00;-24010.53;5052571;28;20711;-77
2021/12/11 07:19:53;;;;;;;22.63;15.10;;;;;;;6.99;100.00;-24012.25;5052880;28;20194;-78
2021/12/11 07:22:19;;;;;;;20.93;14.23;;;;;;;6.93;100.00;-24010.53;5053349;28;20670;-77
2021/12/11 07:24:58;;;;;;;19.17;13.67;;;;;;;6.99;100.00;-24012.25;5051867;28;20186;-76
2021/12/11 07:27:24;;;;;;;21.50;14.17;;;;;;;6.65;100.00;-24002.72;5051215;28;20267;-77
2021/12/11 07:29:49;;;;;;;25.10;15.13;;;;;;;7.24;100.00;-24019.19;5051953;28;20645;-75
2021/12/11 07:32:15;;;;;;;21.33;14.57;;;;;;;6.97;100.00;-24011.66;5052667;28;20197;-75
2021/12/11 07:34:41;;;;;;;23.03;13.63;;;;;;;7.55;100.00;-24027.97;5051212;28;20270;-73
2021/12/11 07:37:08;;;;;;;24.53;14.87;;;;;;;7.64;100.00;-24030.25;5052414;28;20183;-74
2021/12/11 07:39:34;;;;;;;22.37;13.83;;;;;;;8.03;100.00;-24041.16;5052815;28;20167;-73
2021/12/11 07:42:00;;;;;;;24.70;14.97;;;;;;;8.13;100.00;-24044.00;5052398;28;20232;-74
2021/12/11 07:44:27;;;;;;;20.73;14.30;;;;;;;7.47;100.00;-24025.56;5052283;28;20174;-77
2021/12/11 07:46:54;;;;;;;24.57;15.37;;;;;;;7.81;100.00;-24035.06;5050901;28;20638;-78
2021/12/11 07:49:20;;;;;;;21.37;15.27;;;;;;;8.50;100.00;-24054.31;5052205;28;20174;-73
2021/12/11 07:51:45;;;;;;;25.27;14.73;;;;;;;8.50;100.00;-24054.31;5052259;28;20660;-75
2021/12/11 07:54:11;;;;;;;21.63;14.33;;;;;;;7.86;100.00;-24036.63;5052354;28;20167;-74
2021/12/11 07:56:37;;;;;;;23.13;15.37;;;;;;;8.74;100.00;-24061.25;5051907;28;20171;-74
2021/12/11 07:59:05;;;;;;;21.23;13.90;;;;;;;8.74;100.00;-24061.25;5052351;28;20175;-73
2021/12/11 08:01:35;;;;;;;19.53;13.83;;;;;;;9.35;100.00;-24078.22;5051450;28;20595;-73
2021/12/11 08:04:03;;;;;;;23.30;14.52;;;;;;;9.13;100.00;-24072.00;5051961;28;20166;-77
2021/12/11 08:06:31;;;;;;;23.50;15.07;;;;;;;9.72;100.00;-24088.69;5050517;28;20576;-73
2021/12/11 08:08:56;;;;;;;20.10;13.98;;;;;;;9.33;100.00;-24077.66;5051919;28;20582;-72
2021/12/11 08:11:25;;;;;;;20.33;14.20;;;;;;;9.37;100.00;-24078.78;5050377;28;20174;-72
2021/12/11 08:13:51;;;;;;;23.40;13.95;;;;;;;9.77;100.00;-24089.94;5049062;28;20601;-74
2021/12/11 08:16:22;;;;;;;18.73;13.70;;;;;;;10.19;100.00;-24101.69;5050338;28;20229;-73
2021/12/11 08:18:50;;;;;;;23.02;14.32;;;;;;;10.24;100.00;-24102.94;5051514;28;20195;-74
2021/12/11 08:21:16;;;;;;;21.13;14.75;;;;;;;9.61;100.00;-24085.44;5050019;28;20171;-74
2021/12/11 08:23:44;;;;;;;23.88;15.25;;;;;;;9.48;100.00;-24081.91;5051883;28;20238;-74
2021/12/11 08:26:15;;;;;;;30.08;15.38;;;;;;;9.65;100.00;-24086.72;5049392;28;20202;-75
2021/12/11 08:28:41;;;;;;;21.92;15.27;;;;;;;9.47;100.00;-24081.47;5045728;28;20189;-71
2021/12/11 08:31:06;;;;;;;22.88;15.15;;;;;;;9.38;100.00;-24079.06;5046320;28;20182;-71
2021/12/11 08:33:32;;;;;;;21.67;14.67;;;;;;;9.21;100.00;-24074.41;5083712;28;20301;-75
2021/12/11 08:36:00;;;;;;;22.40;14.70;;;;;;;9.73;100.00;-24088.81;5051426;28;20185;-74
2021/12/11 08:38:25;;;;;;;24.70;14.65;;;;;;;9.37;100.00;-24078.66;5051232;28;20228;-74
2021/12/11 08:40:54;;;;;;;23.52;15.45;;;;;;;10.06;100.00;-24098.00;5050297;28;20170;-76
2021/12/11 08:43:21;;;;;;;21.35;14.10;;;;;;;9.75;100.00;-24089.38;5050001;28;20313;-74
2021/12/11 08:46:22;;;;;;;19.60;14.27;;;;;;;9.90;100.00;-24093.63;5052025;28;20198;-75
2021/12/11 08:48:49;;;;;;;20.35;13.93;;;;;;;9.82;100.00;-24091.38;5054266;28;20585;-76
2021/12/11 08:51:32;;;;;;;24.45;14.48;;;;;;;10.44;100.00;-24108.75;5055086;28;20185;-76
2021/12/11 08:54:01;;;;;;;22.58;14.38;;;;;;;10.47;100.00;-24109.59;5036160;28;20685;-76
2021/12/11 08:56:28;;;;;;;20.65;14.27;;;;;;;10.22;100.00;-24102.53;5033537;28;20249;-74
2021/12/11 08:58:55;;;;;;;23.00;14.93;;;;;;;10.50;100.00;-24110.28;4643941;28;21047;-77
2021/12/11 09:01:30;;;;;;;23.73;15.07;;;;;;;10.48;100.00;-24109.72;4492594;28;20875;-75
2021/12/11 09:04:11;;;;;;;20.55;14.20;;;;;;;10.68;100.00;-24115.22;4810115;28;20186;-74
2021/12/11 09:06:39;;;;;;;23.33;13.75;;;;;;;10.91;100.00;-24121.84;5051613;28;20186;-74
2021/12/11 09:09:18;;;;;;;21.20;14.13;;;;;;;11.08;100.00;-24126.50;5050063;28;20190;-74
2021/12/11 09:11:57;;;;;;;19.40;13.15;;;;;;;11.65;100.00;-24142.28;5050583;28;20158;-75
2021/12/11 09:14:26;;;;;;;20.73;13.20;;;;;;;12.17;100.00;-24156.78;5050312;28;20272;-73
2021/12/11 09:17:05;;;;;;;21.95;12.82;;;;;;;12.49;100.00;-24165.81;5051163;28;20171;-72
2021/12/11 09:19:51;;;;;;;21.42;12.60;;;;;;;12.92;100.00;-24177.63;5051438;28;20177;-73
2021/12/11 09:22:20;;;;;;;20.27;13.07;;;;;;;13.14;100.00;-24183.81;5051293;28;20159;-73
2021/12/11 09:24:55;;;;;;;24.13;12.57;;;;;;;13.14;100.00;-24183.81;5050927;28;20155;-72
2021/12/11 09:27:23;;;;;;;19.70;11.77;;;;;;;13.23;100.00;-24186.47;5050529;28;20181;-73
2021/12/11 09:29:56;;;;;;;19.80;12.43;;;;;;;13.11;100.00;-24183.09;5046479;28;20266;-73
2021/12/11 09:32:32;;;;;;;18.63;12.75;;;;;;;12.89;100.00;-24176.78;5050541;28;20187;-74
2021/12/11 09:35:26;;;;;;;24.08;12.90;;;;;;;13.16;100.00;-24184.38;5050231;28;20232;-73
2021/12/11 09:37:56;;;;;;;20.17;11.18;;;;;;;13.02;100.00;-24180.56;5050894;28;20173;-74
2021/12/11 09:40:37;;;;;;;25.35;11.52;;;;;;;12.61;100.00;-24169.03;5054818;28;20163;-72
2021/12/11 09:43:03;;;;;;;18.15;11.90;;;;;;;12.72;100.00;-24172.13;5054557;28;20226;-73
2021/12/11 09:45:37;;;;;;;20.90;11.50;;;;;;;12.23;100.00;-24158.63;5054703;28;20631;-72
2021/12/11 09:48:07;;;;;;;20.98;12.32;;;;;;;12.22;100.00;-24158.34;5053956;28;20185;-73
2021/12/11 09:50:44;;;;;;;21.65;12.10;;;;;;;11.87;100.00;-24148.50;5054337;28;20212;-72
2021/12/11 09:53:10;;;;;;;20.35;12.32;;;;;;;12.39;100.00;-24163.00;5054712;28;20166;-72
2021/12/11 09:55:39;;;;;;;22.85;11.88;;;;;;;12.63;100.00;-24169.59;5054467;28;20236;-72
2021/12/11 09:58:12;;;;;;;28.10;12.43;;;;;;;12.78;100.00;-24173.81;5053643;28;20163;-73
2021/12/11 10:00:47;;;;;;;20.42;12.07;;;;;;;12.89;100.00;-24176.91;5053903;28;20167;-71
2021/12/11 10:03:16;;;;;;;22.08;11.43;;;;;;;12.66;100.00;-24170.59;5053837;28;20167;-73
2021/12/11 10:05:55;;;;;;;21.85;12.82;;;;;;;12.36;100.00;-24162.28;5053940;28;20198;-72
2021/12/11 10:08:30;;;;;;;22.88;12.02;;;;;;;12.56;100.00;-24167.78;5053566;28;20181;-72
2021/12/11 10:11:14;;;;;;;19.02;11.90;;;;;;;12.30;100.00;-24160.59;5052364;28;20170;-74
2021/12/11 10:13:51;;;;;;;21.17;12.13;;;;;;;12.40;100.00;-24163.28;5054249;28;20605;-72
2021/12/11 10:16:21;;;;;;;25.30;12.00;;;;;;;12.28;100.00;-24160.03;5054134;28;20173;-72
2021/12/11 10:18:48;;;;;;;23.67;11.95;;;;;;;12.37;100.00;-24162.44;5053783;28;20193;-74
2021/12/11 10:21:22;;;;;;;21.30;11.13;;;;;;;12.63;100.00;-24169.75;5053358;28;21218;-72
2021/12/11 10:23:52;;;;;;;21.55;9.43;;;;;;;13.25;100.00;-24186.91;5053566;28;20175;-74
2021/12/11 10:26:22;;;;;;;18.00;9.23;;;;;;;13.36;100.00;-24190.00;5053731;28;20203;-73
2021/12/11 10:28:54;;;;;;;22.23;10.23;;;;;;;13.25;100.00;-24186.91;5052554;28;20182;-74
2021/12/11 10:31:30;;;;;;;18.88;9.85;;;;;;;12.92;100.00;-24177.75;5052027;28;20171;-74
2021/12/11 10:33:58;;;;;;;20.48;10.07;;;;;;;13.31;100.00;-24188.44;5053791;28;20649;-73
2021/12/11 10:36:27;;;;;;;18.55;9.82;;;;;;;13.48;100.00;-24193.22;5053843;28;20171;-73
2021/12/11 10:38:55;;;;;;;20.35;10.63;;;;;;;13.67;100.00;-24198.56;5053723;28;20174;-74
2021/12/11 10:41:23;;;;;;;23.73;10.45;;;;;;;13.71;100.00;-24199.81;5052367;28;20261;-75
2021/12/11 10:43:59;;;;;;;19.00;9.50;;;;;;;13.44;100.00;-24192.25;5053200;28;20201;-73
2021/12/11 10:46:29;;;;;;;19.88;9.80;;;;;;;13.42;100.00;-24191.66;5051779;28;20210;-73
2021/12/11 10:48:55;;;;;;;15.35;9.23;;;;;;;12.87;100.00;-24176.34;5054332;28;20187;-72
2021/12/11 10:51:32;;;;;;;18.23;9.63;;;;;;;13.08;100.00;-24182.25;5054989;28;20638;-73
2021/12/11 10:53:58;;;;;;;15.73;9.02;;;;;;;12.62;100.00;-24169.47;5055340;28;20167;-72
2021/12/11 10:56:26;;;;;;;15.27;8.88;;;;;;;12.32;100.00;-24161.16;5054168;28;20186;-72
2021/12/11 10:58:56;;;;;;;14.05;7.78;;;;;;;12.61;100.00;-24169.03;5055198;28;20178;-73
2021/12/11 11:01:31;;;;;;;20.83;8.10;;;;;;;12.11;100.00;-24155.25;5053260;28;20175;-72
2021/12/11 11:04:04;;;;;;;14.70;7.72;;;;;;;11.84;100.00;-24147.66;5052693;28;20178;-74
2021/12/11 11:06:30;;;;;;;18.35;8.00;;;;;;;12.28;100.00;-24160.03;5053053;28;20750;-74
2021/12/11 11:08:56;;;;;;;24.35;8.68;;;;;;;12.34;100.00;-24161.59;5052556;28;20186;-71
2021/12/11 11:11:25;;;;;;;16.65;8.43;;;;;;;12.27;100.00;-24159.63;5052922;28;20225;-72
2021/12/11 11:13:51;;;;;;;17.77;8.60;;;;;;;12.47;100.00;-24165.25;5052194;28;20663;-70
2021/12/11 11:16:18;;;;;;;14.65;7.43;;;;;;;12.56;100.00;-24167.78;5050737;28;20175;-73
2021/12/11 11:18:43;;;;;;;16.10;7.95;;;;;;;12.58;100.00;-24168.19;5051751;28;20274;-72
2021/12/11 11:21:14;;;;;;;16.90;7.88;;;;;;;12.59;100.00;-24168.63;5052474;28;20185;-73
2021/12/11 11:23:42;;;;;;;20.50;8.80;;;;;;;12.11;100.00;-24155.25;5052179;28;20167;-72
2021/12/11 11:26:15;;;;;;;20.85;8.57;;;;;;;12.00;100.00;-24152.00;5050180;28;20245;-73
2021/12/11 11:28:41;;;;;;;19.67;9.70;;;;;;;11.93;100.00;-24150.31;5051593;28;20186;-74
2021/12/11 11:31:10;;;;;;;17.90;9.77;;;;;;;11.86;100.00;-24148.22;5051750;28;20699;-76
2021/12/11 11:33:37;;;;;;;17.08;8.73;;;;;;;12.08;100.00;-24154.41;5052934;28;20270;-74
2021/12/11 11:36:07;;;;;;;22.80;9.50;;;;;;;11.24;100.00;-24131.03;5052288;28;20182;-74
2021/12/11 11:38:41;;;;;;;20.50;9.02;;;;;;;12.12;100.00;-24155.38;5051495;28;20287;-74
2021/12/11 11:41:11;;;;;;;20.00;9.52;;;;;;;12.42;100.00;-24163.69;5054905;28;20239;-73
2021/12/11 11:43:37;;;;;;;21.17;9.45;;;;;;;12.54;100.00;-24167.06;5052930;28;20186;-72